Airfield :
LOGIN :

Register | Disclaimer

   EN    FR    IT 

 










Legend :    VFR   Marginal VFR   IFR   Intensive IFR   Very Intensive IFR
Visi :
Ceiling :
>= 8 km
>= 3000ft
5 to 8 km
1000 to 3000 ft
1500m to 5 km
500 to 1000 ft
800 to 1500m
200 to 500 ft
< 800m
< 200 ft
Symbols :   Thunderstorms  Fog  Heavy snow  Heavy precipitations  Wind > 20 kt
SIGMETs :     Misc.  Thunderstorms  Icing  Turbulence  Mountain Waves  Volcanic Ashes






- Airport Elevation : 46 ft
- IATA code : SNN


EINN - Shannon

CURRENT METAR :
  • 052100Z 24005KT 9999 OVC012 15/13 Q1011 NOSIG

EXPIRED METARs :
  • 052030Z 28005KT 9999 OVC013 15/13 Q1010 NOSIG
  • 052000Z 27007KT 9999 OVC013 15/13 Q1010 NOSIG
  • 051930Z 28008KT 9999 SCT013 OVC020 16/13 Q1010 NOSIG
  • 051900Z 27007KT 9999 SCT015 BKN024 16/13 Q1009 NOSIG
  • 051830Z 26010KT 9999 SCT016 BKN022 16/13 Q1009 NOSIG

TAF AMD TAF EINN
Valid from the 05 at 20:00 until the 06 at 18:00 UTC


052056Z 0520/0618 28008KT 9999 SCT020 BKN040
BECMG 0520/0522 VRB03KT
TEMPO 0520/0523 BKN013
PROB40
TEMPO 0520/0607 3000 BR
BECMG 0605/0607 16010KT
BECMG 0616/0618 19010KT



MET'MAP, your aeronautical weather chart ! - Copyright ORBIFLY December 2007 - Disclaimer

ORBIFLY MET'MAP TEAM :

Programming & Development : Alexandra Zaïnal
Concept & original design : Baudouin d'Aumeries
Assistance for programming : Marc-Olivier Méhu
Technical & hardware support : Manuel Goepfert

Contact : metmap@orbifly.com




SOURCES & CREDITS :

   NOAA